createdAt,value
2019-03-03T00:00:47.458Z,73.10
2019-03-03T00:03:16.097Z,73.40
2019-03-03T00:05:44.571Z,72.90
2019-03-03T00:08:13.243Z,72.90
2019-03-03T00:10:41.844Z,72.70
2019-03-03T00:13:10.399Z,72.10
2019-03-03T00:15:38.947Z,72.40
2019-03-03T00:18:07.435Z,72.30
2019-03-03T00:20:35.995Z,72.50
2019-03-03T00:23:04.497Z,72.40
2019-03-03T00:25:33.101Z,72.70
2019-03-03T00:28:01.606Z,72.90
2019-03-03T00:30:30.153Z,72.70
2019-03-03T00:32:58.659Z,72.40
2019-03-03T00:35:27.239Z,72.50
2019-03-03T00:38:06.343Z,72.50
2019-03-03T00:40:42.294Z,72.70
2019-03-03T00:43:21.372Z,73.00
2019-03-03T00:45:51.548Z,72.70
2019-03-03T00:48:21.706Z,73.00
2019-03-03T00:50:51.876Z,73.40
2019-03-03T00:53:43.536Z,73.50
2019-03-03T00:56:16.696Z,73.60
2019-03-03T00:58:46.851Z,73.60
2019-03-03T01:01:17.021Z,73.50
2019-03-03T01:03:49.985Z,73.90
2019-03-03T01:06:25.885Z,74.10
2019-03-03T01:08:56.058Z,74.00
2019-03-03T01:11:26.282Z,74.10
2019-03-03T01:13:56.446Z,74.20
2019-03-03T01:16:44.573Z,74.10
2019-03-03T01:19:17.555Z,74.10
2019-03-03T01:21:50.201Z,74.10
2019-03-03T01:24:29.566Z,74.40
2019-03-03T01:26:58.146Z,74.40
2019-03-03T01:29:29.745Z,73.40
2019-03-03T01:31:58.298Z,72.70
2019-03-03T01:34:29.496Z,73.20
2019-03-03T01:36:58.029Z,73.30
2019-03-03T01:39:26.634Z,73.10
2019-03-03T01:41:55.139Z,73.50
2019-03-03T01:44:23.725Z,72.50
2019-03-03T01:46:52.249Z,71.90
2019-03-03T01:49:21.828Z,71.80
2019-03-03T01:51:50.347Z,72.40
2019-03-03T01:54:18.875Z,72.40
2019-03-03T01:56:47.474Z,72.20
2019-03-03T01:59:15.980Z,72.80
2019-03-03T02:01:44.723Z,72.50
2019-03-03T02:04:13.327Z,72.50
2019-03-03T02:06:41.895Z,72.90
2019-03-03T02:09:12.038Z,72.40
2019-03-03T02:11:40.635Z,72.70
2019-03-03T02:14:09.171Z,72.50
2019-03-03T02:16:37.824Z,73.50
2019-03-03T02:19:06.413Z,74.50
2019-03-03T02:21:34.924Z,73.70
2019-03-03T02:24:03.448Z,73.90
2019-03-03T02:26:31.982Z,74.30
2019-03-03T02:29:00.481Z,75.00
2019-03-03T02:31:29.028Z,75.30
2019-03-03T02:33:57.630Z,75.60
2019-03-03T02:36:26.242Z,76.10
2019-03-03T02:38:54.834Z,76.30
2019-03-03T02:41:23.319Z,75.30
2019-03-03T02:43:51.873Z,77.40
2019-03-03T02:46:20.396Z,78.30
2019-03-03T02:48:48.998Z,79.40
2019-03-03T02:51:17.505Z,80.20
2019-03-03T02:53:46.094Z,80.80
2019-03-03T02:56:14.687Z,80.40
2019-03-03T02:58:43.375Z,79.70
2019-03-03T03:01:13.553Z,79.00
2019-03-03T03:03:42.049Z,78.80
2019-03-03T03:06:15.207Z,80.10
2019-03-03T03:08:45.347Z,81.80
2019-03-03T03:11:21.296Z,83.10
2019-03-03T03:13:57.189Z,83.60
2019-03-03T03:16:30.171Z,84.00
2019-03-03T03:19:00.347Z,83.50
2019-03-03T03:21:39.477Z,82.90
2019-03-03T03:24:18.289Z,83.50
2019-03-03T03:26:57.261Z,83.60
2019-03-03T03:29:27.424Z,83.60
2019-03-03T03:32:12.315Z,83.90
2019-03-03T03:34:45.246Z,84.00
2019-03-03T03:37:15.392Z,84.20
2019-03-03T03:39:45.654Z,84.00
2019-03-03T03:42:18.761Z,84.50
2019-03-03T03:45:05.563Z,84.50
2019-03-03T03:47:38.563Z,84.70
2019-03-03T03:50:13.133Z,85.40
2019-03-03T03:52:59.525Z,85.80
2019-03-03T03:55:45.041Z,85.60
2019-03-03T03:58:17.980Z,86.20
2019-03-03T04:00:48.208Z,86.00
2019-03-03T04:03:23.880Z,85.80
2019-03-03T04:05:59.653Z,85.80
2019-03-03T04:08:35.812Z,86.10
2019-03-03T04:11:08.979Z,86.30
2019-03-03T04:13:55.639Z,85.40
2019-03-03T04:16:40.779Z,86.00
2019-03-03T04:19:19.889Z,85.80
2019-03-03T04:21:50.124Z,86.00
2019-03-03T04:24:36.608Z,86.00
2019-03-03T04:27:12.497Z,86.60
2019-03-03T04:29:48.659Z,86.70
2019-03-03T04:32:18.837Z,85.90
2019-03-03T04:35:07.266Z,86.90
2019-03-03T04:37:54.066Z,87.30
2019-03-03T04:40:24.245Z,87.10
2019-03-03T04:42:54.406Z,86.40
2019-03-03T04:45:30.753Z,86.30
2019-03-03T04:48:03.864Z,85.90
2019-03-03T04:50:36.744Z,86.20
2019-03-03T04:53:12.706Z,86.70
2019-03-03T04:55:49.007Z,86.60
2019-03-03T04:58:25.033Z,86.30
2019-03-03T05:01:01.469Z,86.30
2019-03-03T05:03:34.725Z,85.70
2019-03-03T05:06:17.037Z,86.20
2019-03-03T05:08:47.175Z,86.90
2019-03-03T05:11:54.129Z,87.20
2019-03-03T05:14:24.314Z,86.70
2019-03-03T05:16:54.482Z,87.20
2019-03-03T05:19:23.439Z,87.40
2019-03-03T05:21:52.032Z,87.10
2019-03-03T05:24:20.572Z,86.70
2019-03-03T05:26:49.171Z,86.70
2019-03-03T05:29:17.813Z,86.90
2019-03-03T05:31:46.320Z,87.10
2019-03-03T05:34:14.883Z,87.20
2019-03-03T05:36:43.430Z,86.90
2019-03-03T05:39:12.023Z,87.10
2019-03-03T05:41:40.626Z,87.30
2019-03-03T05:44:09.249Z,87.40
2019-03-03T05:46:37.779Z,87.50
2019-03-03T05:49:06.352Z,87.50
2019-03-03T05:51:34.959Z,87.30
2019-03-03T05:54:03.525Z,87.30
2019-03-03T05:56:32.367Z,87.40
2019-03-03T05:59:00.883Z,87.20
2019-03-03T06:01:29.523Z,87.30
2019-03-03T06:03:57.983Z,87.30
2019-03-03T06:06:26.545Z,86.90
2019-03-03T06:08:55.088Z,87.30
2019-03-03T06:11:23.662Z,87.30
2019-03-03T06:13:52.278Z,86.90
2019-03-03T06:16:20.850Z,86.60
2019-03-03T06:18:49.371Z,86.40
2019-03-03T06:21:17.885Z,86.70
2019-03-03T06:23:46.429Z,86.30
2019-03-03T06:26:14.936Z,86.50
2019-03-03T06:28:43.526Z,86.10
2019-03-03T06:31:12.074Z,85.80
2019-03-03T06:33:40.614Z,85.80
2019-03-03T06:36:09.152Z,86.00
2019-03-03T06:38:37.758Z,86.10
2019-03-03T06:41:06.281Z,85.80
2019-03-03T06:43:34.828Z,85.60
2019-03-03T06:46:03.475Z,85.50
2019-03-03T06:48:33.650Z,86.10
2019-03-03T06:51:02.167Z,85.90
2019-03-03T06:53:30.714Z,85.00
2019-03-03T06:55:59.216Z,84.40
2019-03-03T06:58:27.803Z,84.10
2019-03-03T07:00:56.305Z,83.50
2019-03-03T07:03:24.915Z,83.40
2019-03-03T07:05:53.503Z,83.20
2019-03-03T07:08:22.190Z,83.20
2019-03-03T07:10:50.828Z,83.50
2019-03-03T07:13:19.439Z,84.00
2019-03-03T07:15:48.040Z,84.50
2019-03-03T07:18:16.623Z,84.40
2019-03-03T07:20:45.254Z,84.40
2019-03-03T07:23:13.752Z,84.00
2019-03-03T07:25:42.330Z,84.30
2019-03-03T07:28:10.947Z,83.50
2019-03-03T07:30:39.534Z,83.00
2019-03-03T07:33:09.774Z,82.60
2019-03-03T07:35:38.361Z,82.70
2019-03-03T07:38:06.955Z,82.30
2019-03-03T07:40:35.484Z,81.60
2019-03-03T07:43:04.004Z,81.00
2019-03-03T07:45:32.595Z,80.20
2019-03-03T07:48:01.357Z,79.60
2019-03-03T07:50:29.915Z,79.10
2019-03-03T07:52:58.512Z,78.70
2019-03-03T07:55:27.691Z,78.60
2019-03-03T07:57:56.243Z,77.60
2019-03-03T08:00:24.739Z,77.00
2019-03-03T08:02:53.263Z,76.40
2019-03-03T08:05:22.241Z,76.00
2019-03-03T08:07:50.787Z,75.90
2019-03-03T08:10:19.383Z,76.00
2019-03-03T08:12:47.902Z,75.80
2019-03-03T08:15:18.290Z,74.90
2019-03-03T08:17:46.816Z,74.20
2019-03-03T08:20:15.477Z,73.10
2019-03-03T08:22:44.032Z,71.10
2019-03-03T08:25:13.227Z,70.60
2019-03-03T08:27:41.779Z,70.10
2019-03-03T08:30:40.013Z,69.90
2019-03-03T08:32:59.881Z,69.50
2019-03-03T08:35:30.455Z,69.10
2019-03-03T08:37:59.047Z,69.40
2019-03-03T08:40:27.564Z,68.00
2019-03-03T08:43:10.085Z,69.40
2019-03-03T08:45:45.949Z,69.60
2019-03-03T08:48:28.338Z,69.50
2019-03-03T08:51:07.808Z,70.00
2019-03-03T08:53:40.950Z,68.80
2019-03-03T08:56:27.503Z,68.80
2019-03-03T08:59:03.514Z,69.40
2019-03-03T09:01:42.727Z,68.70
2019-03-03T09:04:15.857Z,66.80
2019-03-03T09:06:48.980Z,65.40
2019-03-03T09:09:19.168Z,64.60
2019-03-03T09:11:52.460Z,64.80
2019-03-03T09:14:25.314Z,64.40
2019-03-03T09:16:57.897Z,63.90
2019-03-03T09:19:31.134Z,62.20
2019-03-03T09:22:13.318Z,61.80
2019-03-03T09:24:42.825Z,62.30
2019-03-03T09:27:14.723Z,61.60
2019-03-03T09:30:01.358Z,60.50
2019-03-03T09:32:40.390Z,59.60
2019-03-03T09:35:10.635Z,59.20
2019-03-03T09:37:40.804Z,59.10
2019-03-03T09:40:17.576Z,58.50
2019-03-03T09:42:47.720Z,59.20
2019-03-03T09:45:26.901Z,59.00
2019-03-03T09:47:57.082Z,58.40
2019-03-03T09:50:27.325Z,57.80
2019-03-03T09:52:57.576Z,57.00
2019-03-03T09:55:33.584Z,55.90
2019-03-03T09:58:06.826Z,54.70
2019-03-03T10:00:48.639Z,54.60
2019-03-03T10:03:18.824Z,54.50
2019-03-03T10:05:57.876Z,54.30
2019-03-03T10:08:31.032Z,53.30
2019-03-03T10:11:07.260Z,53.40
2019-03-03T10:13:39.980Z,52.60
2019-03-03T10:16:16.443Z,53.50
2019-03-03T10:19:07.132Z,53.30
2019-03-03T10:21:33.743Z,52.90
2019-03-03T10:24:04.030Z,52.60
2019-03-03T10:26:50.719Z,52.70
2019-03-03T10:29:20.855Z,52.80
2019-03-03T10:31:53.878Z,53.30
2019-03-03T10:34:24.101Z,54.00
2019-03-03T10:37:09.463Z,53.10
2019-03-03T10:39:42.764Z,52.10
2019-03-03T10:42:16.104Z,50.80
2019-03-03T10:44:46.358Z,51.20
2019-03-03T10:47:25.445Z,51.00
2019-03-03T10:50:04.652Z,51.70
2019-03-03T10:52:51.106Z,52.60
2019-03-03T10:55:26.726Z,51.00
2019-03-03T10:57:59.597Z,51.70
2019-03-03T11:00:30.336Z,51.20
2019-03-03T11:03:16.792Z,51.10
2019-03-03T11:05:47.023Z,51.30
2019-03-03T11:08:20.100Z,50.90
2019-03-03T11:10:57.741Z,48.60
2019-03-03T11:13:44.858Z,48.70
2019-03-03T11:16:17.633Z,49.00
2019-03-03T11:18:56.942Z,47.60
2019-03-03T11:21:34.974Z,48.00
2019-03-03T11:24:07.834Z,48.90
2019-03-03T11:26:38.057Z,48.20
2019-03-03T11:29:20.161Z,48.40
2019-03-03T11:32:08.552Z,47.60
2019-03-03T11:34:50.766Z,47.70
2019-03-03T11:37:20.312Z,47.70
2019-03-03T11:39:50.585Z,46.90
2019-03-03T11:42:26.670Z,46.60
2019-03-03T11:45:03.149Z,47.30
2019-03-03T11:47:33.328Z,45.50
2019-03-03T11:50:03.491Z,45.10
2019-03-03T11:52:40.292Z,44.50
2019-03-03T11:55:25.533Z,44.70
2019-03-03T11:57:55.714Z,44.00
2019-03-03T12:00:28.738Z,43.00
2019-03-03T12:03:07.798Z,42.60
2019-03-03T12:05:38.015Z,43.20
2019-03-03T12:08:11.286Z,43.60
2019-03-03T12:10:44.130Z,43.00
2019-03-03T12:13:30.350Z,43.00
2019-03-03T12:16:00.647Z,41.60
2019-03-03T12:18:42.837Z,42.40
2019-03-03T12:21:12.428Z,42.90
2019-03-03T12:23:45.678Z,43.00
2019-03-03T12:26:21.354Z,42.70
2019-03-03T12:29:06.695Z,42.30
2019-03-03T12:31:45.829Z,39.60
2019-03-03T12:34:18.806Z,39.20
2019-03-03T12:37:01.107Z,40.50
2019-03-03T12:39:31.307Z,39.80
2019-03-03T12:42:03.576Z,39.80
2019-03-03T12:44:49.544Z,40.00
2019-03-03T12:47:25.443Z,38.60
2019-03-03T12:50:04.687Z,38.70
2019-03-03T12:52:53.272Z,39.40
2019-03-03T12:55:39.861Z,40.00
2019-03-03T12:58:20.437Z,40.10
2019-03-03T13:01:06.721Z,39.30
2019-03-03T13:03:43.794Z,39.30
2019-03-03T13:06:13.963Z,38.80
2019-03-03T13:08:59.889Z,38.50
2019-03-03T13:11:50.805Z,38.90
2019-03-03T13:14:20.875Z,39.00
2019-03-03T13:16:51.109Z,38.70
2019-03-03T13:19:21.405Z,38.30
2019-03-03T13:21:57.714Z,36.80
2019-03-03T13:24:34.133Z,36.60
2019-03-03T13:27:07.392Z,36.10
2019-03-03T13:29:43.347Z,35.90
2019-03-03T13:32:19.224Z,36.40
2019-03-03T13:34:55.096Z,35.40
2019-03-03T13:37:37.239Z,33.80
2019-03-03T13:40:24.498Z,33.00
2019-03-03T13:42:58.735Z,34.00
2019-03-03T13:45:28.637Z,34.20
2019-03-03T13:47:57.220Z,35.30
2019-03-03T13:50:25.836Z,36.10
2019-03-03T13:52:54.381Z,36.00
2019-03-03T13:55:22.896Z,35.30
2019-03-03T13:57:51.678Z,33.30
2019-03-03T14:00:22.759Z,31.10
2019-03-03T14:02:51.343Z,29.00
2019-03-03T14:05:21.509Z,27.20
2019-03-03T14:07:50.107Z,26.70
2019-03-03T14:10:18.629Z,26.50
2019-03-03T14:12:47.244Z,26.60
2019-03-03T14:15:22.956Z,26.30
2019-03-03T14:17:51.554Z,26.40
2019-03-03T14:20:21.816Z,26.90
2019-03-03T14:22:51.014Z,25.50
2019-03-03T14:25:19.738Z,24.80
2019-03-03T14:27:48.245Z,23.80
2019-03-03T14:30:22.609Z,22.60
2019-03-03T14:32:51.114Z,23.80
2019-03-03T14:35:19.846Z,24.20
2019-03-03T14:37:48.396Z,24.20
2019-03-03T14:40:20.218Z,24.40
2019-03-03T14:42:48.751Z,24.30
2019-03-03T14:45:18.505Z,24.00
2019-03-03T14:47:48.890Z,24.30
2019-03-03T14:50:19.040Z,26.30
2019-03-03T14:52:51.548Z,26.80
2019-03-03T14:55:20.452Z,25.90
2019-03-03T14:57:48.998Z,24.60
2019-03-03T15:00:30.839Z,23.60
2019-03-03T15:03:01.051Z,22.10
2019-03-03T15:05:29.798Z,21.50
2019-03-03T15:07:58.451Z,22.20
2019-03-03T15:10:27.153Z,23.20
2019-03-03T15:12:55.985Z,22.70
2019-03-03T15:15:36.411Z,22.80
2019-03-03T15:18:04.907Z,23.00
2019-03-03T15:20:33.895Z,21.90
2019-03-03T15:23:02.421Z,21.80
2019-03-03T15:25:30.959Z,21.30
2019-03-03T15:27:59.569Z,22.60
2019-03-03T15:30:28.190Z,23.90
2019-03-03T15:32:56.680Z,25.10
2019-03-03T15:35:25.256Z,26.70
2019-03-03T15:37:53.752Z,27.40
2019-03-03T15:40:27.123Z,28.30
2019-03-03T15:42:55.653Z,28.00
2019-03-03T15:45:25.745Z,29.50
2019-03-03T15:47:54.338Z,28.80
2019-03-03T15:50:23.107Z,29.00
2019-03-03T15:52:51.742Z,28.80
2019-03-03T15:55:29.348Z,28.90
2019-03-03T15:57:57.906Z,29.60
2019-03-03T16:00:28.957Z,29.90
2019-03-03T16:02:57.620Z,30.40
2019-03-03T16:05:26.229Z,30.30
2019-03-03T16:07:54.733Z,30.80
2019-03-03T16:10:24.956Z,31.90
2019-03-03T16:12:53.531Z,33.10
2019-03-03T16:15:22.132Z,33.90
2019-03-03T16:17:50.672Z,34.00
2019-03-03T16:20:23.199Z,34.10
2019-03-03T16:22:51.840Z,35.90
2019-03-03T16:25:21.823Z,35.50
2019-03-03T16:27:50.335Z,35.70
2019-03-03T16:30:22.159Z,36.30
2019-03-03T16:32:50.780Z,36.90
2019-03-03T16:35:19.336Z,37.10
2019-03-03T16:37:47.944Z,37.40
2019-03-03T16:40:23.864Z,37.80
2019-03-03T16:42:52.422Z,38.30
2019-03-03T16:45:20.985Z,38.30
2019-03-03T16:47:49.610Z,38.70
2019-03-03T16:50:24.489Z,40.10
2019-03-03T16:52:53.040Z,40.90
2019-03-03T16:55:21.891Z,41.20
2019-03-03T16:57:50.516Z,42.10
2019-03-03T17:00:21.774Z,41.00
2019-03-03T17:02:50.516Z,41.10
2019-03-03T17:05:21.334Z,42.30
2019-03-03T17:07:49.897Z,41.70
2019-03-03T17:10:18.447Z,41.70
2019-03-03T17:12:46.982Z,42.70
2019-03-03T17:15:20.737Z,42.00
2019-03-03T17:17:49.391Z,43.10
2019-03-03T17:20:17.927Z,43.30
2019-03-03T17:22:46.536Z,43.10
2019-03-03T17:25:20.753Z,43.50
2019-03-03T17:27:49.391Z,43.80
2019-03-03T17:30:22.914Z,44.50
2019-03-03T17:32:51.439Z,44.90
2019-03-03T17:35:20.221Z,45.40
2019-03-03T17:37:48.928Z,45.70
2019-03-03T17:40:28.524Z,45.90
2019-03-03T17:42:57.142Z,45.90
2019-03-03T17:45:25.859Z,45.80
2019-03-03T17:47:54.523Z,46.20
2019-03-03T17:50:30.889Z,46.80
2019-03-03T17:53:00.703Z,47.10
2019-03-03T17:55:29.324Z,46.90
2019-03-03T17:57:58.003Z,47.60
2019-03-03T18:00:29.205Z,48.40
2019-03-03T18:02:57.763Z,48.80
2019-03-03T18:05:26.294Z,48.90
2019-03-03T18:07:54.943Z,48.90
2019-03-03T18:10:23.649Z,48.90
2019-03-03T18:12:52.278Z,49.20
2019-03-03T18:15:20.806Z,49.20
2019-03-03T18:17:50.528Z,49.30
2019-03-03T18:20:22.569Z,49.60
2019-03-03T18:22:51.175Z,50.10
2019-03-03T18:25:21.801Z,49.80
2019-03-03T18:27:50.652Z,50.30
2019-03-03T18:30:21.789Z,50.30
2019-03-03T18:32:50.308Z,50.80
2019-03-03T18:35:18.860Z,51.40
2019-03-03T18:37:47.395Z,51.90
2019-03-03T18:40:26.014Z,52.20
2019-03-03T18:42:54.542Z,52.70
2019-03-03T18:45:23.667Z,53.10
2019-03-03T18:47:52.343Z,53.50
2019-03-03T18:50:23.955Z,53.90
2019-03-03T18:52:52.551Z,53.90
2019-03-03T18:55:21.162Z,54.00
2019-03-03T18:57:50.767Z,54.20
2019-03-03T19:00:22.750Z,54.70
2019-03-03T19:02:51.558Z,55.20
2019-03-03T19:05:20.171Z,55.40
2019-03-03T19:07:48.796Z,55.90
2019-03-03T19:10:26.106Z,55.40
2019-03-03T19:12:54.678Z,55.60
2019-03-03T19:15:23.185Z,55.70
2019-03-03T19:17:54.576Z,55.60
2019-03-03T19:20:23.116Z,55.50
2019-03-03T19:22:51.653Z,55.70
2019-03-03T19:25:20.149Z,55.60
2019-03-03T19:27:48.747Z,55.30
2019-03-03T19:30:25.289Z,54.80
2019-03-03T19:33:06.271Z,54.40
2019-03-03T19:35:34.878Z,53.90
2019-03-03T19:38:03.810Z,53.90
2019-03-03T19:40:32.410Z,54.10
2019-03-03T19:43:00.969Z,55.20
2019-03-03T19:45:35.130Z,55.20
2019-03-03T19:48:04.839Z,55.30
2019-03-03T19:50:33.578Z,55.50
2019-03-03T19:53:02.343Z,55.90
2019-03-03T19:55:31.042Z,55.90
2019-03-03T19:57:59.765Z,55.80
2019-03-03T20:00:39.022Z,56.00
2019-03-03T20:03:08.101Z,56.30
2019-03-03T20:05:36.822Z,55.90
2019-03-03T20:08:06.275Z,55.70
2019-03-03T20:10:35.683Z,55.70
2019-03-03T20:13:04.874Z,55.70
2019-03-03T20:15:33.623Z,55.80
2019-03-03T20:18:02.445Z,56.40
2019-03-03T20:20:31.703Z,56.50
2019-03-03T20:23:02.083Z,56.90
2019-03-03T20:25:30.842Z,57.40
2019-03-03T20:28:00.015Z,57.50
2019-03-03T20:30:30.332Z,57.80
2019-03-03T20:32:59.064Z,58.30
2019-03-03T20:35:27.817Z,58.90
2019-03-03T20:37:56.548Z,59.20
2019-03-03T20:40:29.334Z,59.10
2019-03-03T20:43:00.598Z,59.50
2019-03-03T20:45:35.143Z,59.80
2019-03-03T20:48:03.858Z,59.80
2019-03-03T20:50:32.650Z,59.50
2019-03-03T20:53:01.394Z,59.80
2019-03-03T20:55:31.856Z,60.00
2019-03-03T20:58:02.147Z,60.30
2019-03-03T21:00:34.981Z,60.90
2019-03-03T21:03:04.959Z,61.30
2019-03-03T21:05:33.670Z,61.60
2019-03-03T21:08:02.501Z,61.40
2019-03-03T21:10:35.026Z,62.10
2019-03-03T21:13:03.716Z,61.60
2019-03-03T21:15:32.445Z,61.50
2019-03-03T21:18:01.208Z,61.20
2019-03-03T21:20:29.880Z,61.40
2019-03-03T21:22:58.655Z,61.50
2019-03-03T21:25:27.398Z,62.40
2019-03-03T21:27:56.054Z,61.60
2019-03-03T21:30:25.621Z,60.10
2019-03-03T21:32:54.352Z,59.30
2019-03-03T21:35:23.159Z,59.40
2019-03-03T21:37:51.737Z,59.50
2019-03-03T21:40:27.413Z,60.80
2019-03-03T21:42:55.989Z,62.70
2019-03-03T21:45:29.717Z,64.40
2019-03-03T21:47:58.257Z,65.70
2019-03-03T21:50:30.670Z,66.80
2019-03-03T21:52:59.313Z,67.40
2019-03-03T21:55:27.874Z,68.20
2019-03-03T21:57:56.577Z,68.80
2019-03-03T22:00:33.567Z,69.00
2019-03-03T22:03:02.211Z,69.00
2019-03-03T22:05:30.886Z,68.90
2019-03-03T22:07:59.427Z,69.40
2019-03-03T22:10:31.668Z,69.80
2019-03-03T22:13:01.731Z,69.90
2019-03-03T22:15:30.409Z,69.70
2019-03-03T22:18:00.571Z,69.50
2019-03-03T22:20:29.103Z,69.50
2019-03-03T22:22:57.689Z,69.30
2019-03-03T22:25:26.318Z,69.80
2019-03-03T22:27:54.835Z,69.50
2019-03-03T22:30:23.373Z,69.60
2019-03-03T22:32:53.524Z,69.00
2019-03-03T22:35:22.151Z,68.90
2019-03-03T22:37:51.189Z,68.20
2019-03-03T22:40:24.499Z,68.30
2019-03-03T22:42:53.071Z,67.40
2019-03-03T22:45:22.124Z,67.20
2019-03-03T22:47:50.665Z,68.60
2019-03-03T22:50:22.525Z,68.30
2019-03-03T22:52:52.684Z,67.60
2019-03-03T22:55:21.820Z,67.40
2019-03-03T22:57:50.399Z,66.40
2019-03-03T23:00:46.776Z,65.10
2019-03-03T23:03:30.661Z,65.10
2019-03-03T23:06:11.247Z,65.70
2019-03-03T23:08:48.827Z,65.80
2019-03-03T23:11:29.063Z,66.20
2019-03-03T23:14:00.881Z,66.70
2019-03-03T23:16:38.602Z,67.20
2019-03-03T23:19:25.200Z,65.90
2019-03-03T23:22:13.711Z,64.50
2019-03-03T23:25:05.099Z,62.70
2019-03-03T23:27:35.259Z,60.40
2019-03-03T23:30:05.177Z,60.90
2019-03-03T23:32:33.712Z,62.00
2019-03-03T23:35:02.289Z,62.80
2019-03-03T23:37:30.896Z,63.20
2019-03-03T23:39:59.407Z,63.70
2019-03-03T23:42:27.986Z,64.20
2019-03-03T23:44:56.476Z,64.90
2019-03-03T23:47:26.720Z,65.30
2019-03-03T23:49:55.223Z,65.90
2019-03-03T23:52:26.820Z,66.60
2019-03-03T23:54:55.448Z,67.30
2019-03-03T23:57:24.045Z,67.60
2019-03-03T23:59:52.574Z,67.30
